sensor_id;sensor_type;location;lat;lon;timestamp;temperature;humidity
33673;DHT22;20011;51.510;9.942;2023-07-13T00:00:26;18.70;99.90
33673;DHT22;20011;51.510;9.942;2023-07-13T00:02:53;18.70;99.90
33673;DHT22;20011;51.510;9.942;2023-07-13T00:05:22;18.70;99.90
33673;DHT22;20011;51.510;9.942;2023-07-13T00:07:50;18.80;99.90
33673;DHT22;20011;51.510;9.942;2023-07-13T00:10:17;18.70;99.90
33673;DHT22;20011;51.510;9.942;2023-07-13T00:12:44;18.70;99.90
33673;DHT22;20011;51.510;9.942;2023-07-13T00:15:16;18.70;99.90
33673;DHT22;20011;51.510;9.942;2023-07-13T00:17:43;18.70;99.90
33673;DHT22;20011;51.510;9.942;2023-07-13T00:20:14;18.70;99.90
33673;DHT22;20011;51.510;9.942;2023-07-13T00:25:10;18.70;99.90
33673;DHT22;20011;51.510;9.942;2023-07-13T00:27:38;18.70;99.90
33673;DHT22;20011;51.510;9.942;2023-07-13T00:30:05;18.70;99.90
33673;DHT22;20011;51.510;9.942;2023-07-13T00:32:32;18.70;99.90
33673;DHT22;20011;51.510;9.942;2023-07-13T00:35:00;18.70;99.90
33673;DHT22;20011;51.510;9.942;2023-07-13T00:37:27;18.70;99.90
33673;DHT22;20011;51.510;9.942;2023-07-13T00:39:54;18.70;99.90
33673;DHT22;20011;51.510;9.942;2023-07-13T00:42:21;18.60;99.90
33673;DHT22;20011;51.510;9.942;2023-07-13T00:47:28;18.70;99.90
33673;DHT22;20011;51.510;9.942;2023-07-13T00:49:55;18.60;99.90
33673;DHT22;20011;51.510;9.942;2023-07-13T00:52:24;18.60;99.90
33673;DHT22;20011;51.510;9.942;2023-07-13T00:54:51;18.60;99.90
33673;DHT22;20011;51.510;9.942;2023-07-13T00:57:20;18.60;99.90
33673;DHT22;20011;51.510;9.942;2023-07-13T00:59:52;18.60;99.90
33673;DHT22;20011;51.510;9.942;2023-07-13T01:02:20;18.60;99.90
33673;DHT22;20011;51.510;9.942;2023-07-13T01:04:48;18.50;99.90
33673;DHT22;20011;51.510;9.942;2023-07-13T01:07:15;18.50;99.90
33673;DHT22;20011;51.510;9.942;2023-07-13T01:09:43;18.50;99.90
33673;DHT22;20011;51.510;9.942;2023-07-13T01:12:12;18.50;99.90
33673;DHT22;20011;51.510;9.942;2023-07-13T01:14:40;18.50;99.90
33673;DHT22;20011;51.510;9.942;2023-07-13T01:17:11;18.50;99.90
33673;DHT22;20011;51.510;9.942;2023-07-13T01:19:43;18.60;99.90
33673;DHT22;20011;51.510;9.942;2023-07-13T01:22:13;18.50;99.90
33673;DHT22;20011;51.510;9.942;2023-07-13T01:24:43;18.50;99.90
33673;DHT22;20011;51.510;9.942;2023-07-13T01:27:13;18.50;99.90
33673;DHT22;20011;51.510;9.942;2023-07-13T01:29:43;18.60;99.90
33673;DHT22;20011;51.510;9.942;2023-07-13T01:32:14;18.50;99.90
33673;DHT22;20011;51.510;9.942;2023-07-13T01:34:41;18.50;99.90
33673;DHT22;20011;51.510;9.942;2023-07-13T01:37:10;18.60;99.90
33673;DHT22;20011;51.510;9.942;2023-07-13T01:39:38;18.50;99.90
33673;DHT22;20011;51.510;9.942;2023-07-13T01:42:05;18.50;99.90
33673;DHT22;20011;51.510;9.942;2023-07-13T01:44:32;18.50;99.90
33673;DHT22;20011;51.510;9.942;2023-07-13T01:47:01;18.60;99.90
33673;DHT22;20011;51.510;9.942;2023-07-13T01:49:28;18.50;99.90
33673;DHT22;20011;51.510;9.942;2023-07-13T01:51:55;18.50;99.90
33673;DHT22;20011;51.510;9.942;2023-07-13T01:54:22;18.50;99.90
33673;DHT22;20011;51.510;9.942;2023-07-13T01:56:50;18.50;99.90
33673;DHT22;20011;51.510;9.942;2023-07-13T01:59:17;18.50;99.90
33673;DHT22;20011;51.510;9.942;2023-07-13T02:01:44;18.50;99.90
33673;DHT22;20011;51.510;9.942;2023-07-13T02:04:11;18.50;99.90
33673;DHT22;20011;51.510;9.942;2023-07-13T02:06:38;18.50;99.90
33673;DHT22;20011;51.510;9.942;2023-07-13T02:09:06;18.50;99.90
33673;DHT22;20011;51.510;9.942;2023-07-13T02:11:33;18.60;99.90
33673;DHT22;20011;51.510;9.942;2023-07-13T02:14:01;18.60;99.90
33673;DHT22;20011;51.510;9.942;2023-07-13T02:16:30;18.50;99.90
33673;DHT22;20011;51.510;9.942;2023-07-13T02:18:58;18.60;99.90
33673;DHT22;20011;51.510;9.942;2023-07-13T02:21:25;18.50;99.90
33673;DHT22;20011;51.510;9.942;2023-07-13T02:26:20;18.50;99.90
33673;DHT22;20011;51.510;9.942;2023-07-13T02:28:47;18.50;99.90
33673;DHT22;20011;51.510;9.942;2023-07-13T02:31:15;18.50;99.90
33673;DHT22;20011;51.510;9.942;2023-07-13T02:33:43;18.40;99.90
33673;DHT22;20011;51.510;9.942;2023-07-13T02:36:12;18.40;99.90
33673;DHT22;20011;51.510;9.942;2023-07-13T02:38:39;18.40;99.90
33673;DHT22;20011;51.510;9.942;2023-07-13T02:41:07;18.40;99.90
33673;DHT22;20011;51.510;9.942;2023-07-13T02:43:36;18.30;99.90
33673;DHT22;20011;51.510;9.942;2023-07-13T02:46:04;18.30;99.90
33673;DHT22;20011;51.510;9.942;2023-07-13T02:48:36;18.30;99.90
33673;DHT22;20011;51.510;9.942;2023-07-13T02:51:05;18.30;99.90
33673;DHT22;20011;51.510;9.942;2023-07-13T02:53:32;18.30;99.90
33673;DHT22;20011;51.510;9.942;2023-07-13T02:55:59;18.20;99.90
33673;DHT22;20011;51.510;9.942;2023-07-13T02:58:26;18.30;99.90
33673;DHT22;20011;51.510;9.942;2023-07-13T03:00:55;18.20;99.90
33673;DHT22;20011;51.510;9.942;2023-07-13T03:03:22;18.20;99.90
33673;DHT22;20011;51.510;9.942;2023-07-13T03:05:58;18.20;99.90
33673;DHT22;20011;51.510;9.942;2023-07-13T03:08:30;18.20;99.90
33673;DHT22;20011;51.510;9.942;2023-07-13T03:11:03;18.20;99.90
33673;DHT22;20011;51.510;9.942;2023-07-13T03:13:34;18.10;99.90
33673;DHT22;20011;51.510;9.942;2023-07-13T03:16:04;18.10;99.90
33673;DHT22;20011;51.510;9.942;2023-07-13T03:18:31;18.10;99.90
33673;DHT22;20011;51.510;9.942;2023-07-13T03:21:03;18.10;99.90
33673;DHT22;20011;51.510;9.942;2023-07-13T03:23:31;18.00;99.90
33673;DHT22;20011;51.510;9.942;2023-07-13T03:31:07;17.90;99.90
33673;DHT22;20011;51.510;9.942;2023-07-13T03:33:35;17.90;99.90
33673;DHT22;20011;51.510;9.942;2023-07-13T03:36:04;17.80;99.90
33673;DHT22;20011;51.510;9.942;2023-07-13T03:38:32;17.80;99.90
33673;DHT22;20011;51.510;9.942;2023-07-13T03:41:01;17.70;99.90
33673;DHT22;20011;51.510;9.942;2023-07-13T03:43:29;17.70;99.90
33673;DHT22;20011;51.510;9.942;2023-07-13T03:48:24;17.70;99.90
33673;DHT22;20011;51.510;9.942;2023-07-13T03:50:51;17.60;99.90
33673;DHT22;20011;51.510;9.942;2023-07-13T03:53:17;18.30;99.90
33673;DHT22;20011;51.510;9.942;2023-07-13T03:55:46;17.60;99.90
33673;DHT22;20011;51.510;9.942;2023-07-13T03:58:31;17.60;99.90
33673;DHT22;20011;51.510;9.942;2023-07-13T04:01:07;17.60;99.90
33673;DHT22;20011;51.510;9.942;2023-07-13T04:03:35;17.50;99.90
33673;DHT22;20011;51.510;9.942;2023-07-13T04:06:03;17.50;99.90
33673;DHT22;20011;51.510;9.942;2023-07-13T04:08:36;17.50;99.90
33673;DHT22;20011;51.510;9.942;2023-07-13T04:11:04;17.50;99.90
33673;DHT22;20011;51.510;9.942;2023-07-13T04:13:31;17.50;99.90
33673;DHT22;20011;51.510;9.942;2023-07-13T04:15:58;17.60;99.90
33673;DHT22;20011;51.510;9.942;2023-07-13T04:18:25;17.60;99.90
33673;DHT22;20011;51.510;9.942;2023-07-13T04:20:52;17.60;99.90
33673;DHT22;20011;51.510;9.942;2023-07-13T04:23:19;17.60;99.90
33673;DHT22;20011;51.510;9.942;2023-07-13T04:25:47;17.70;99.90
33673;DHT22;20011;51.510;9.942;2023-07-13T04:28:16;17.70;99.90
33673;DHT22;20011;51.510;9.942;2023-07-13T04:30:44;17.70;99.90
33673;DHT22;20011;51.510;9.942;2023-07-13T04:35:39;17.80;99.90
33673;DHT22;20011;51.510;9.942;2023-07-13T04:38:06;17.90;99.90
33673;DHT22;20011;51.510;9.942;2023-07-13T04:40:33;17.90;99.90
33673;DHT22;20011;51.510;9.942;2023-07-13T04:43:00;17.90;99.90
33673;DHT22;20011;51.510;9.942;2023-07-13T04:45:27;18.00;99.90
33673;DHT22;20011;51.510;9.942;2023-07-13T04:47:54;18.10;99.90
33673;DHT22;20011;51.510;9.942;2023-07-13T04:50:21;18.10;99.90
33673;DHT22;20011;51.510;9.942;2023-07-13T04:52:52;18.20;99.90
33673;DHT22;20011;51.510;9.942;2023-07-13T04:55:20;18.20;99.90
33673;DHT22;20011;51.510;9.942;2023-07-13T04:57:48;18.20;99.90
33673;DHT22;20011;51.510;9.942;2023-07-13T05:00:15;18.20;99.90
33673;DHT22;20011;51.510;9.942;2023-07-13T05:02:44;18.30;99.90
33673;DHT22;20011;51.510;9.942;2023-07-13T05:05:13;18.30;99.90
33673;DHT22;20011;51.510;9.942;2023-07-13T05:07:40;18.30;99.90
33673;DHT22;20011;51.510;9.942;2023-07-13T05:10:07;18.30;99.90
33673;DHT22;20011;51.510;9.942;2023-07-13T05:15:03;18.30;99.90
33673;DHT22;20011;51.510;9.942;2023-07-13T05:17:30;18.40;99.90
33673;DHT22;20011;51.510;9.942;2023-07-13T05:19:57;18.40;99.90
33673;DHT22;20011;51.510;9.942;2023-07-13T05:22:24;18.40;99.90
33673;DHT22;20011;51.510;9.942;2023-07-13T05:24:51;18.40;99.90
33673;DHT22;20011;51.510;9.942;2023-07-13T05:27:18;18.40;99.90
33673;DHT22;20011;51.510;9.942;2023-07-13T05:29:45;18.40;99.90
33673;DHT22;20011;51.510;9.942;2023-07-13T05:32:11;18.40;99.90
33673;DHT22;20011;51.510;9.942;2023-07-13T05:34:38;18.40;99.90
33673;DHT22;20011;51.510;9.942;2023-07-13T05:37:05;18.40;99.90
33673;DHT22;20011;51.510;9.942;2023-07-13T05:39:32;18.40;99.90
33673;DHT22;20011;51.510;9.942;2023-07-13T05:42:00;18.50;99.90
33673;DHT22;20011;51.510;9.942;2023-07-13T05:44:26;18.50;99.90
33673;DHT22;20011;51.510;9.942;2023-07-13T05:46:53;18.50;99.90
33673;DHT22;20011;51.510;9.942;2023-07-13T05:49:23;18.50;99.90
33673;DHT22;20011;51.510;9.942;2023-07-13T05:51:50;18.50;99.90
33673;DHT22;20011;51.510;9.942;2023-07-13T05:54:17;18.50;99.90
33673;DHT22;20011;51.510;9.942;2023-07-13T05:56:44;18.60;99.90
33673;DHT22;20011;51.510;9.942;2023-07-13T05:59:11;18.60;99.90
33673;DHT22;20011;51.510;9.942;2023-07-13T06:01:38;18.60;99.90
33673;DHT22;20011;51.510;9.942;2023-07-13T06:04:05;18.60;99.90
33673;DHT22;20011;51.510;9.942;2023-07-13T06:06:33;18.60;99.90
33673;DHT22;20011;51.510;9.942;2023-07-13T06:08:59;18.70;99.90
33673;DHT22;20011;51.510;9.942;2023-07-13T06:11:27;18.60;99.90
33673;DHT22;20011;51.510;9.942;2023-07-13T06:13:56;18.70;99.90
33673;DHT22;20011;51.510;9.942;2023-07-13T06:16:23;18.70;99.90
33673;DHT22;20011;51.510;9.942;2023-07-13T06:18:50;18.80;99.90
33673;DHT22;20011;51.510;9.942;2023-07-13T06:21:21;18.80;99.90
33673;DHT22;20011;51.510;9.942;2023-07-13T06:23:50;18.80;99.90
33673;DHT22;20011;51.510;9.942;2023-07-13T06:26:19;18.80;99.90
33673;DHT22;20011;51.510;9.942;2023-07-13T06:28:46;18.90;99.90
33673;DHT22;20011;51.510;9.942;2023-07-13T06:31:14;18.90;99.90
33673;DHT22;20011;51.510;9.942;2023-07-13T06:33:42;18.90;99.90
33673;DHT22;20011;51.510;9.942;2023-07-13T06:36:09;19.00;99.90
33673;DHT22;20011;51.510;9.942;2023-07-13T06:38:37;19.00;99.90
33673;DHT22;20011;51.510;9.942;2023-07-13T06:41:06;19.00;99.90
33673;DHT22;20011;51.510;9.942;2023-07-13T06:43:33;19.10;99.90
33673;DHT22;20011;51.510;9.942;2023-07-13T06:46:00;19.10;99.90
33673;DHT22;20011;51.510;9.942;2023-07-13T06:48:27;19.20;99.90
33673;DHT22;20011;51.510;9.942;2023-07-13T06:50:55;19.20;99.90
33673;DHT22;20011;51.510;9.942;2023-07-13T06:53:23;19.20;99.90
33673;DHT22;20011;51.510;9.942;2023-07-13T06:55:50;19.10;99.90
33673;DHT22;20011;51.510;9.942;2023-07-13T06:58:18;19.10;99.90
33673;DHT22;20011;51.510;9.942;2023-07-13T07:00:46;19.10;99.90
33673;DHT22;20011;51.510;9.942;2023-07-13T07:03:13;19.10;99.90
33673;DHT22;20011;51.510;9.942;2023-07-13T07:05:40;19.20;99.90
33673;DHT22;20011;51.510;9.942;2023-07-13T07:08:07;19.20;99.90
33673;DHT22;20011;51.510;9.942;2023-07-13T07:10:34;19.20;99.90
33673;DHT22;20011;51.510;9.942;2023-07-13T07:13:02;19.20;99.90
33673;DHT22;20011;51.510;9.942;2023-07-13T07:15:30;19.20;99.90
33673;DHT22;20011;51.510;9.942;2023-07-13T07:17:57;19.30;99.90
33673;DHT22;20011;51.510;9.942;2023-07-13T07:20:24;19.30;99.90
33673;DHT22;20011;51.510;9.942;2023-07-13T07:22:51;19.30;99.90
33673;DHT22;20011;51.510;9.942;2023-07-13T07:25:18;19.40;99.90
33673;DHT22;20011;51.510;9.942;2023-07-13T07:30:15;19.40;99.90
33673;DHT22;20011;51.510;9.942;2023-07-13T07:32:45;19.50;99.90
33673;DHT22;20011;51.510;9.942;2023-07-13T07:35:15;19.50;99.90
33673;DHT22;20011;51.510;9.942;2023-07-13T07:37:42;19.50;99.90
33673;DHT22;20011;51.510;9.942;2023-07-13T07:40:12;19.50;99.90
33673;DHT22;20011;51.510;9.942;2023-07-13T07:42:42;19.50;99.90
33673;DHT22;20011;51.510;9.942;2023-07-13T07:45:09;19.50;99.90
33673;DHT22;20011;51.510;9.942;2023-07-13T07:47:38;19.50;99.90
33673;DHT22;20011;51.510;9.942;2023-07-13T07:50:05;19.50;99.90
33673;DHT22;20011;51.510;9.942;2023-07-13T07:52:33;19.50;99.90
33673;DHT22;20011;51.510;9.942;2023-07-13T07:54:59;19.60;99.90
33673;DHT22;20011;51.510;9.942;2023-07-13T07:57:30;19.60;99.90
33673;DHT22;20011;51.510;9.942;2023-07-13T08:00:00;19.70;99.90
33673;DHT22;20011;51.510;9.942;2023-07-13T08:02:40;19.70;99.90
33673;DHT22;20011;51.510;9.942;2023-07-13T08:05:28;19.70;99.90
33673;DHT22;20011;51.510;9.942;2023-07-13T08:07:57;19.80;99.90
33673;DHT22;20011;51.510;9.942;2023-07-13T08:10:24;19.80;99.90
33673;DHT22;20011;51.510;9.942;2023-07-13T08:12:51;19.80;99.90
33673;DHT22;20011;51.510;9.942;2023-07-13T08:15:21;19.80;99.90
33673;DHT22;20011;51.510;9.942;2023-07-13T08:20:16;19.90;99.90
33673;DHT22;20011;51.510;9.942;2023-07-13T08:22:44;20.00;99.90
33673;DHT22;20011;51.510;9.942;2023-07-13T08:25:11;20.00;99.90
33673;DHT22;20011;51.510;9.942;2023-07-13T08:27:38;20.10;99.90
33673;DHT22;20011;51.510;9.942;2023-07-13T08:30:05;20.10;99.90
33673;DHT22;20011;51.510;9.942;2023-07-13T08:32:32;20.20;99.90
33673;DHT22;20011;51.510;9.942;2023-07-13T08:34:59;20.20;99.90
33673;DHT22;20011;51.510;9.942;2023-07-13T08:37:26;20.30;99.90
33673;DHT22;20011;51.510;9.942;2023-07-13T08:39:53;20.40;99.90
33673;DHT22;20011;51.510;9.942;2023-07-13T08:42:44;20.40;99.90
33673;DHT22;20011;51.510;9.942;2023-07-13T08:45:36;20.40;99.90
33673;DHT22;20011;51.510;9.942;2023-07-13T08:48:13;20.50;99.90
33673;DHT22;20011;51.510;9.942;2023-07-13T08:53:55;20.50;99.90
33673;DHT22;20011;51.510;9.942;2023-07-13T08:56:26;20.60;99.90
33673;DHT22;20011;51.510;9.942;2023-07-13T08:59:00;20.60;99.90
33673;DHT22;20011;51.510;9.942;2023-07-13T09:01:35;20.60;99.90
33673;DHT22;20011;51.510;9.942;2023-07-13T09:04:21;20.60;99.90
33673;DHT22;20011;51.510;9.942;2023-07-13T09:06:58;20.60;99.20
33673;DHT22;20011;51.510;9.942;2023-07-13T09:09:50;20.60;99.60
33673;DHT22;20011;51.510;9.942;2023-07-13T09:12:35;20.70;99.90
33673;DHT22;20011;51.510;9.942;2023-07-13T09:15:22;20.70;99.60
33673;DHT22;20011;51.510;9.942;2023-07-13T09:17:55;20.70;99.90
33673;DHT22;20011;51.510;9.942;2023-07-13T09:20:29;20.70;99.90
33673;DHT22;20011;51.510;9.942;2023-07-13T09:23:04;20.70;99.90
33673;DHT22;20011;51.510;9.942;2023-07-13T09:25:37;20.80;99.90
33673;DHT22;20011;51.510;9.942;2023-07-13T09:28:27;20.70;99.90
33673;DHT22;20011;51.510;9.942;2023-07-13T09:31:17;20.70;99.90
33673;DHT22;20011;51.510;9.942;2023-07-13T09:33:45;20.70;99.90
33673;DHT22;20011;51.510;9.942;2023-07-13T09:36:22;20.70;99.90
33673;DHT22;20011;51.510;9.942;2023-07-13T09:44:17;20.80;99.90
33673;DHT22;20011;51.510;9.942;2023-07-13T09:46:53;20.80;99.70
33673;DHT22;20011;51.510;9.942;2023-07-13T09:49:33;20.80;99.90
33673;DHT22;20011;51.510;9.942;2023-07-13T09:52:06;20.90;99.90
33673;DHT22;20011;51.510;9.942;2023-07-13T09:54:35;21.10;99.90
33673;DHT22;20011;51.510;9.942;2023-07-13T09:57:12;21.10;98.80
33673;DHT22;20011;51.510;9.942;2023-07-13T09:59:50;21.10;97.30
33673;DHT22;20011;51.510;9.942;2023-07-13T10:02:33;21.20;97.10
33673;DHT22;20011;51.510;9.942;2023-07-13T10:05:14;21.30;95.80
33673;DHT22;20011;51.510;9.942;2023-07-13T10:07:45;21.30;95.30
33673;DHT22;20011;51.510;9.942;2023-07-13T10:10:22;21.40;95.00
33673;DHT22;20011;51.510;9.942;2023-07-13T10:12:50;21.20;95.10
33673;DHT22;20011;51.510;9.942;2023-07-13T10:15:24;21.00;94.60
33673;DHT22;20011;51.510;9.942;2023-07-13T10:17:54;21.00;99.60
33673;DHT22;20011;51.510;9.942;2023-07-13T10:20:23;21.00;99.90
33673;DHT22;20011;51.510;9.942;2023-07-13T10:22:59;20.80;97.60
33673;DHT22;20011;51.510;9.942;2023-07-13T10:25:31;21.10;95.80
33673;DHT22;20011;51.510;9.942;2023-07-13T10:28:14;21.00;96.10
33673;DHT22;20011;51.510;9.942;2023-07-13T10:30:46;21.00;96.90
33673;DHT22;20011;51.510;9.942;2023-07-13T10:33:14;21.00;96.30
33673;DHT22;20011;51.510;9.942;2023-07-13T10:35:43;20.90;95.70
33673;DHT22;20011;51.510;9.942;2023-07-13T10:38:18;20.90;95.30
33673;DHT22;20011;51.510;9.942;2023-07-13T10:41:07;20.90;95.80
33673;DHT22;20011;51.510;9.942;2023-07-13T10:43:43;20.90;98.40
33673;DHT22;20011;51.510;9.942;2023-07-13T10:46:14;20.90;95.60
33673;DHT22;20011;51.510;9.942;2023-07-13T10:48:44;20.80;95.20
33673;DHT22;20011;51.510;9.942;2023-07-13T10:51:16;20.80;95.00
33673;DHT22;20011;51.510;9.942;2023-07-13T10:53:44;20.80;97.90
33673;DHT22;20011;51.510;9.942;2023-07-13T10:56:29;20.80;96.80
33673;DHT22;20011;51.510;9.942;2023-07-13T10:59:10;20.80;96.80
33673;DHT22;20011;51.510;9.942;2023-07-13T11:04:15;20.90;99.00
33673;DHT22;20011;51.510;9.942;2023-07-13T11:06:43;20.90;98.20
33673;DHT22;20011;51.510;9.942;2023-07-13T11:09:39;21.00;98.40
33673;DHT22;20011;51.510;9.942;2023-07-13T11:12:10;21.00;96.10
33673;DHT22;20011;51.510;9.942;2023-07-13T11:22:47;21.30;94.20
33673;DHT22;20011;51.510;9.942;2023-07-13T11:25:27;21.40;94.00
33673;DHT22;20011;51.510;9.942;2023-07-13T11:35:36;21.10;95.10
33673;DHT22;20011;51.510;9.942;2023-07-13T11:38:19;21.20;94.60
33673;DHT22;20011;51.510;9.942;2023-07-13T11:40:48;21.20;94.90
33673;DHT22;20011;51.510;9.942;2023-07-13T11:43:22;21.20;94.00
33673;DHT22;20011;51.510;9.942;2023-07-13T11:45:52;21.20;93.90
33673;DHT22;20011;51.510;9.942;2023-07-13T11:48:29;21.20;93.40
33673;DHT22;20011;51.510;9.942;2023-07-13T11:51:04;21.30;94.30
33673;DHT22;20011;51.510;9.942;2023-07-13T11:53:39;21.30;96.10
33673;DHT22;20011;51.510;9.942;2023-07-13T11:56:07;21.20;95.20
33673;DHT22;20011;51.510;9.942;2023-07-13T11:58:34;21.30;96.90
33673;DHT22;20011;51.510;9.942;2023-07-13T12:01:02;21.30;95.50
33673;DHT22;20011;51.510;9.942;2023-07-13T12:03:32;21.30;93.90
33673;DHT22;20011;51.510;9.942;2023-07-13T12:06:01;21.40;93.80
33673;DHT22;20011;51.510;9.942;2023-07-13T12:08:29;21.40;92.90
33673;DHT22;20011;51.510;9.942;2023-07-13T12:11:02;21.30;97.80
33673;DHT22;20011;51.510;9.942;2023-07-13T12:13:37;21.30;96.60
33673;DHT22;20011;51.510;9.942;2023-07-13T12:16:14;21.30;97.20
33673;DHT22;20011;51.510;9.942;2023-07-13T12:18:43;21.30;99.00
33673;DHT22;20011;51.510;9.942;2023-07-13T12:21:17;21.30;95.60
33673;DHT22;20011;51.510;9.942;2023-07-13T12:23:47;21.40;95.10
33673;DHT22;20011;51.510;9.942;2023-07-13T12:26:17;21.40;96.50
33673;DHT22;20011;51.510;9.942;2023-07-13T12:28:51;21.50;96.80
33673;DHT22;20011;51.510;9.942;2023-07-13T12:34:02;21.50;96.70
33673;DHT22;20011;51.510;9.942;2023-07-13T12:36:32;21.50;99.20
33673;DHT22;20011;51.510;9.942;2023-07-13T12:39:12;21.50;99.90
33673;DHT22;20011;51.510;9.942;2023-07-13T12:41:39;21.50;99.90
33673;DHT22;20011;51.510;9.942;2023-07-13T12:44:15;21.50;97.90
33673;DHT22;20011;51.510;9.942;2023-07-13T12:46:53;21.50;99.90
33673;DHT22;20011;51.510;9.942;2023-07-13T12:49:28;21.50;99.90
33673;DHT22;20011;51.510;9.942;2023-07-13T12:51:58;21.50;98.60
33673;DHT22;20011;51.510;9.942;2023-07-13T12:54:27;21.60;97.10
33673;DHT22;20011;51.510;9.942;2023-07-13T12:56:55;21.60;96.90
33673;DHT22;20011;51.510;9.942;2023-07-13T12:59:29;21.60;99.90
33673;DHT22;20011;51.510;9.942;2023-07-13T13:01:57;21.60;99.30
33673;DHT22;20011;51.510;9.942;2023-07-13T13:04:25;21.60;96.00
33673;DHT22;20011;51.510;9.942;2023-07-13T13:07:03;21.60;96.40
33673;DHT22;20011;51.510;9.942;2023-07-13T13:09:30;21.60;96.30
33673;DHT22;20011;51.510;9.942;2023-07-13T13:11:58;21.60;97.10
33673;DHT22;20011;51.510;9.942;2023-07-13T13:14:24;21.70;97.20
33673;DHT22;20011;51.510;9.942;2023-07-13T13:16:52;21.70;98.90
33673;DHT22;20011;51.510;9.942;2023-07-13T13:19:26;21.70;97.70
33673;DHT22;20011;51.510;9.942;2023-07-13T13:21:55;21.70;99.90
33673;DHT22;20011;51.510;9.942;2023-07-13T13:24:24;21.70;99.90
33673;DHT22;20011;51.510;9.942;2023-07-13T13:26:52;21.70;99.10
33673;DHT22;20011;51.510;9.942;2023-07-13T13:29:22;21.70;97.30
33673;DHT22;20011;51.510;9.942;2023-07-13T13:31:54;21.70;96.60
33673;DHT22;20011;51.510;9.942;2023-07-13T13:34:23;21.70;96.30
33673;DHT22;20011;51.510;9.942;2023-07-13T13:36:51;21.70;94.60
33673;DHT22;20011;51.510;9.942;2023-07-13T13:39:36;21.70;95.20
33673;DHT22;20011;51.510;9.942;2023-07-13T13:42:03;21.60;93.90
33673;DHT22;20011;51.510;9.942;2023-07-13T13:44:31;21.70;93.90
33673;DHT22;20011;51.510;9.942;2023-07-13T13:46:58;21.60;94.70
33673;DHT22;20011;51.510;9.942;2023-07-13T13:49:26;21.70;96.10
33673;DHT22;20011;51.510;9.942;2023-07-13T13:51:54;21.70;97.00
33673;DHT22;20011;51.510;9.942;2023-07-13T13:54:23;21.70;96.10
33673;DHT22;20011;51.510;9.942;2023-07-13T13:56:51;21.70;95.00
33673;DHT22;20011;51.510;9.942;2023-07-13T13:59:19;21.70;95.90
33673;DHT22;20011;51.510;9.942;2023-07-13T14:01:47;21.70;95.00
33673;DHT22;20011;51.510;9.942;2023-07-13T14:04:21;21.60;95.70
33673;DHT22;20011;51.510;9.942;2023-07-13T14:06:49;21.70;93.70
33673;DHT22;20011;51.510;9.942;2023-07-13T14:09:18;21.70;93.00
33673;DHT22;20011;51.510;9.942;2023-07-13T14:11:47;21.70;93.90
33673;DHT22;20011;51.510;9.942;2023-07-13T14:14:22;21.70;95.10
33673;DHT22;20011;51.510;9.942;2023-07-13T14:16:50;21.70;95.20
33673;DHT22;20011;51.510;9.942;2023-07-13T14:19:22;21.60;96.60
33673;DHT22;20011;51.510;9.942;2023-07-13T14:21:49;21.60;98.90
33673;DHT22;20011;51.510;9.942;2023-07-13T14:24:16;21.70;96.00
33673;DHT22;20011;51.510;9.942;2023-07-13T14:26:47;21.70;93.90
33673;DHT22;20011;51.510;9.942;2023-07-13T14:29:15;21.70;94.20
33673;DHT22;20011;51.510;9.942;2023-07-13T14:31:45;21.70;93.70
33673;DHT22;20011;51.510;9.942;2023-07-13T14:34:13;21.70;93.90
33673;DHT22;20011;51.510;9.942;2023-07-13T14:36:43;21.70;95.10
33673;DHT22;20011;51.510;9.942;2023-07-13T14:39:23;21.70;94.40
33673;DHT22;20011;51.510;9.942;2023-07-13T14:41:53;21.80;94.00
33673;DHT22;20011;51.510;9.942;2023-07-13T14:44:24;21.80;93.00
33673;DHT22;20011;51.510;9.942;2023-07-13T14:46:52;21.80;93.40
33673;DHT22;20011;51.510;9.942;2023-07-13T14:49:31;21.80;93.30
33673;DHT22;20011;51.510;9.942;2023-07-13T14:52:01;21.80;93.90
33673;DHT22;20011;51.510;9.942;2023-07-13T14:54:31;21.70;92.70
33673;DHT22;20011;51.510;9.942;2023-07-13T14:56:58;21.70;91.90
33673;DHT22;20011;51.510;9.942;2023-07-13T14:59:25;21.80;91.90
33673;DHT22;20011;51.510;9.942;2023-07-13T15:01:52;21.70;98.00
33673;DHT22;20011;51.510;9.942;2023-07-13T15:04:19;21.80;99.90
33673;DHT22;20011;51.510;9.942;2023-07-13T15:07:00;21.80;99.40
33673;DHT22;20011;51.510;9.942;2023-07-13T15:09:29;21.80;99.90
33673;DHT22;20011;51.510;9.942;2023-07-13T15:11:57;21.70;99.90
33673;DHT22;20011;51.510;9.942;2023-07-13T15:14:25;21.80;99.90
33673;DHT22;20011;51.510;9.942;2023-07-13T15:16:54;21.70;98.80
33673;DHT22;20011;51.510;9.942;2023-07-13T15:19:22;21.70;99.90
33673;DHT22;20011;51.510;9.942;2023-07-13T15:21:50;21.70;99.90
33673;DHT22;20011;51.510;9.942;2023-07-13T15:24:18;21.60;99.90
33673;DHT22;20011;51.510;9.942;2023-07-13T15:26:46;21.70;99.90
33673;DHT22;20011;51.510;9.942;2023-07-13T15:29:16;21.60;97.60
33673;DHT22;20011;51.510;9.942;2023-07-13T15:31:44;21.70;99.20
33673;DHT22;20011;51.510;9.942;2023-07-13T15:34:20;21.60;97.70
33673;DHT22;20011;51.510;9.942;2023-07-13T15:36:51;21.60;95.90
33673;DHT22;20011;51.510;9.942;2023-07-13T15:39:19;21.60;93.90
33673;DHT22;20011;51.510;9.942;2023-07-13T15:41:46;21.60;94.80
33673;DHT22;20011;51.510;9.942;2023-07-13T15:44:27;21.60;96.70
33673;DHT22;20011;51.510;9.942;2023-07-13T15:46:55;21.60;96.90
33673;DHT22;20011;51.510;9.942;2023-07-13T15:49:22;21.60;98.60
33673;DHT22;20011;51.510;9.942;2023-07-13T15:51:49;21.60;97.50
33673;DHT22;20011;51.510;9.942;2023-07-13T15:54:18;21.50;95.90
33673;DHT22;20011;51.510;9.942;2023-07-13T15:56:51;21.50;94.40
33673;DHT22;20011;51.510;9.942;2023-07-13T15:59:18;21.50;95.50
33673;DHT22;20011;51.510;9.942;2023-07-13T16:01:45;21.50;96.10
33673;DHT22;20011;51.510;9.942;2023-07-13T16:04:13;21.50;95.60
33673;DHT22;20011;51.510;9.942;2023-07-13T16:06:41;21.50;95.80
33673;DHT22;20011;51.510;9.942;2023-07-13T16:09:19;21.50;95.30
33673;DHT22;20011;51.510;9.942;2023-07-13T16:11:47;21.50;97.80
33673;DHT22;20011;51.510;9.942;2023-07-13T16:14:15;21.50;98.10
33673;DHT22;20011;51.510;9.942;2023-07-13T16:16:43;21.50;99.90
33673;DHT22;20011;51.510;9.942;2023-07-13T16:19:12;21.50;99.70
33673;DHT22;20011;51.510;9.942;2023-07-13T16:21:45;21.50;98.30
33673;DHT22;20011;51.510;9.942;2023-07-13T16:24:19;21.50;98.80
33673;DHT22;20011;51.510;9.942;2023-07-13T16:26:48;21.50;97.80
33673;DHT22;20011;51.510;9.942;2023-07-13T16:29:35;21.50;98.10
33673;DHT22;20011;51.510;9.942;2023-07-13T16:32:08;21.50;97.50
33673;DHT22;20011;51.510;9.942;2023-07-13T16:34:40;21.50;97.30
33673;DHT22;20011;51.510;9.942;2023-07-13T16:37:16;21.50;99.20
33673;DHT22;20011;51.510;9.942;2023-07-13T16:39:49;21.50;99.00
33673;DHT22;20011;51.510;9.942;2023-07-13T16:42:19;21.50;99.90